createdAt,value
2023-03-26T00:03:05.172Z,48.75
2023-03-26T00:08:11.452Z,48.70
2023-03-26T00:13:13.166Z,43.92
2023-03-26T00:18:15.516Z,42.65
2023-03-26T00:23:17.638Z,41.24
2023-03-26T00:28:22.281Z,40.12
2023-03-26T00:33:24.276Z,40.16
2023-03-26T00:38:27.420Z,40.94
2023-03-26T00:43:32.908Z,43.09
2023-03-26T00:48:42.198Z,41.73
2023-03-26T00:53:48.773Z,41.18
2023-03-26T00:58:50.676Z,40.66
2023-03-26T01:04:07.256Z,42.63
2023-03-26T01:09:17.174Z,42.37
2023-03-26T01:14:23.627Z,41.33
2023-03-26T01:19:25.873Z,42.44
2023-03-26T01:24:27.553Z,41.03
2023-03-26T01:29:29.110Z,41.49
2023-03-26T01:34:49.857Z,42.51
2023-03-26T01:39:57.559Z,45.56
2023-03-26T01:45:15.502Z,46.58
2023-03-26T01:50:17.380Z,43.71
2023-03-26T01:55:19.604Z,41.62
2023-03-26T02:00:35.884Z,41.54
2023-03-26T02:05:44.121Z,44.33
2023-03-26T02:10:49.008Z,43.79
2023-03-26T02:16:01.935Z,41.40
2023-03-26T02:21:10.035Z,47.53
2023-03-26T02:26:11.738Z,44.48
2023-03-26T02:31:13.981Z,41.29
2023-03-26T02:36:19.706Z,42.21
2023-03-26T02:41:22.037Z,47.17
2023-03-26T02:46:23.679Z,45.78
2023-03-26T02:51:25.895Z,43.14
2023-03-26T02:56:28.066Z,43.59
2023-03-26T03:01:30.968Z,41.55
2023-03-26T03:06:32.889Z,41.88
2023-03-26T03:11:35.586Z,41.88
2023-03-26T03:16:37.316Z,43.91
2023-03-26T03:21:39.861Z,41.96
2023-03-26T03:26:42.414Z,43.10
2023-03-26T03:31:44.264Z,43.62
2023-03-26T03:36:49.093Z,40.67
2023-03-26T03:41:51.033Z,42.73
2023-03-26T03:46:55.578Z,42.29
2023-03-26T03:51:57.512Z,43.71
2023-03-26T03:56:59.298Z,42.88
2023-03-26T04:02:00.999Z,44.37
2023-03-26T04:07:02.651Z,44.92
2023-03-26T04:12:04.533Z,42.61
2023-03-26T04:17:06.302Z,42.59
2023-03-26T04:22:08.085Z,45.03
2023-03-26T04:27:20.285Z,47.52
2023-03-26T04:32:30.522Z,48.25
2023-03-26T04:37:35.276Z,47.16
2023-03-26T04:42:41.653Z,46.37
2023-03-26T04:47:43.814Z,45.43
2023-03-26T04:52:46.006Z,46.46
2023-03-26T04:57:53.280Z,44.32
2023-03-26T05:02:57.822Z,47.88
2023-03-26T05:07:59.524Z,46.28
2023-03-26T05:13:01.533Z,46.79
2023-03-26T05:18:03.221Z,45.79
2023-03-26T05:23:04.874Z,45.92
2023-03-26T05:28:06.535Z,43.49
2023-03-26T05:33:08.362Z,43.25
2023-03-26T05:38:10.056Z,41.96
2023-03-26T05:48:39.023Z,45.47
2023-03-26T05:53:41.022Z,43.09
2023-03-26T05:58:44.026Z,45.28
2023-03-26T06:03:46.279Z,44.10
2023-03-26T06:09:02.014Z,44.32
2023-03-26T06:14:05.020Z,43.55
2023-03-26T06:19:07.123Z,45.19
2023-03-26T06:29:35.093Z,45.39
2023-03-26T06:34:37.082Z,43.85
2023-03-26T06:39:39.071Z,42.42
2023-03-26T06:44:41.108Z,42.76
2023-03-26T06:49:44.914Z,43.39
2023-03-26T06:54:47.122Z,44.97
2023-03-26T06:59:49.104Z,47.71
2023-03-26T07:04:51.485Z,46.57
2023-03-26T07:09:54.259Z,45.13
2023-03-26T07:14:59.028Z,45.82
2023-03-26T07:20:02.109Z,44.62
2023-03-26T07:25:05.172Z,47.65
2023-03-26T07:30:16.156Z,48.08
2023-03-26T07:35:36.194Z,50.51
2023-03-26T07:41:17.178Z,47.94
2023-03-26T07:46:26.148Z,46.24
2023-03-26T07:51:29.172Z,50.46
2023-03-26T07:56:49.263Z,49.20
2023-03-26T08:02:18.564Z,53.99
2023-03-26T08:07:29.303Z,52.66
2023-03-26T08:12:44.197Z,49.42
2023-03-26T08:17:54.299Z,53.21
2023-03-26T08:23:06.214Z,55.78
2023-03-26T08:28:35.203Z,51.87
2023-03-26T08:33:38.344Z,50.71
2023-03-26T08:38:40.216Z,53.40
2023-03-26T08:44:20.206Z,54.21
2023-03-26T08:49:39.268Z,54.17
2023-03-26T08:55:05.232Z,55.31
2023-03-26T09:00:22.240Z,53.13
2023-03-26T09:05:52.621Z,52.64
2023-03-26T09:11:19.391Z,51.09
2023-03-26T09:16:35.345Z,54.10
2023-03-26T09:22:09.300Z,53.30
2023-03-26T09:27:32.312Z,52.20
2023-03-26T09:32:58.321Z,51.26
2023-03-26T09:38:03.281Z,51.16
2023-03-26T09:43:38.315Z,52.51
2023-03-26T09:49:17.569Z,50.22
2023-03-26T09:54:45.300Z,49.66
2023-03-26T09:59:53.346Z,48.87
2023-03-26T10:05:20.583Z,48.09
2023-03-26T10:10:59.602Z,47.34
2023-03-26T10:16:10.377Z,45.32
2023-03-26T10:21:47.336Z,44.74
2023-03-26T10:27:08.991Z,43.75
2023-03-26T10:32:49.466Z,44.65
2023-03-26T10:38:29.860Z,43.30
2023-03-26T10:44:10.373Z,42.50
2023-03-26T10:55:25.455Z,42.96
2023-03-26T11:06:51.123Z,45.27
2023-03-26T11:12:26.751Z,43.71
2023-03-26T11:17:42.541Z,44.01
2023-03-26T11:22:55.555Z,43.73
2023-03-26T11:28:19.249Z,42.67
2023-03-26T11:33:45.626Z,43.57
2023-03-26T11:38:51.684Z,43.51
2023-03-26T11:44:09.587Z,43.35
2023-03-26T11:49:16.797Z,43.44
2023-03-26T11:54:21.047Z,42.71
2023-03-26T11:59:56.679Z,42.13
2023-03-26T12:05:20.870Z,41.92
2023-03-26T12:10:31.716Z,41.00
2023-03-26T12:15:33.583Z,41.59
2023-03-26T12:20:37.600Z,40.73
2023-03-26T12:25:39.603Z,41.20
2023-03-26T12:30:52.716Z,40.83
2023-03-26T12:35:58.639Z,39.78
2023-03-26T12:41:08.626Z,40.32
2023-03-26T12:47:57.074Z,40.30
2023-03-26T12:52:07.154Z,39.68
2023-03-26T12:57:32.301Z,40.40
2023-03-26T13:03:01.657Z,40.71
2023-03-26T13:08:26.530Z,43.22
2023-03-26T13:13:33.945Z,41.72
2023-03-26T13:18:53.379Z,42.17
2023-03-26T13:24:31.152Z,40.07
2023-03-26T13:30:03.319Z,41.15
2023-03-26T13:35:10.786Z,43.73
2023-03-26T13:40:20.699Z,46.46
2023-03-26T13:45:53.242Z,47.56
2023-03-26T13:51:19.665Z,52.67
2023-03-26T13:56:28.020Z,55.33
2023-03-26T14:01:36.397Z,54.77
2023-03-26T14:06:47.297Z,56.40
2023-03-26T14:11:51.557Z,55.01
2023-03-26T14:17:06.518Z,52.73
2023-03-26T14:23:13.257Z,52.52
2023-03-26T14:28:38.337Z,51.21
2023-03-26T14:33:57.308Z,53.98
2023-03-26T14:39:14.360Z,53.05
2023-03-26T14:44:47.894Z,52.07
2023-03-26T14:50:12.189Z,53.31
2023-03-26T14:55:31.745Z,52.88
2023-03-26T15:00:51.345Z,51.40
2023-03-26T15:06:17.514Z,49.57
2023-03-26T15:11:45.766Z,49.56
2023-03-26T15:17:17.666Z,49.95
2023-03-26T15:22:34.412Z,49.99
2023-03-26T15:27:57.765Z,51.90
2023-03-26T15:33:18.027Z,53.62
2023-03-26T15:38:50.118Z,52.35
2023-03-26T15:44:23.077Z,52.34
2023-03-26T15:49:24.792Z,56.19
2023-03-26T15:54:36.746Z,53.96
2023-03-26T16:00:01.879Z,53.48
2023-03-26T16:05:19.499Z,51.21
2023-03-26T16:10:38.382Z,50.43
2023-03-26T16:15:40.695Z,52.86
2023-03-26T16:20:57.269Z,51.12
2023-03-26T16:26:18.447Z,51.09
2023-03-26T16:31:37.830Z,50.18
2023-03-26T16:36:45.176Z,50.11
2023-03-26T16:42:06.565Z,52.12
2023-03-26T16:47:21.697Z,50.80
2023-03-26T16:52:30.212Z,51.20
2023-03-26T16:58:28.404Z,51.03
2023-03-26T17:03:52.075Z,50.18
2023-03-26T17:09:01.407Z,49.18
2023-03-26T17:14:03.751Z,47.98
2023-03-26T17:19:33.042Z,50.64
2023-03-26T17:24:43.321Z,48.20
2023-03-26T17:30:07.545Z,52.86
2023-03-26T17:35:09.392Z,52.85
2023-03-26T17:40:43.509Z,53.43
2023-03-26T17:45:47.135Z,49.93
2023-03-26T17:51:40.416Z,53.12
2023-03-26T17:56:42.447Z,52.64
2023-03-26T18:01:46.238Z,49.29
2023-03-26T18:06:56.650Z,50.16
2023-03-26T18:12:24.673Z,50.69
2023-03-26T18:17:26.369Z,49.99
2023-03-26T18:22:30.264Z,50.86
2023-03-26T18:27:40.892Z,51.28
2023-03-26T18:33:11.959Z,51.34
2023-03-26T18:38:36.136Z,53.58
2023-03-26T18:43:43.858Z,55.08
2023-03-26T18:48:46.957Z,51.33
2023-03-26T18:53:56.601Z,50.85
2023-03-26T18:58:59.788Z,55.71
2023-03-26T19:04:05.906Z,50.17
2023-03-26T19:09:30.258Z,51.43
2023-03-26T19:14:37.044Z,50.21
2023-03-26T19:19:38.992Z,52.50
2023-03-26T19:24:42.092Z,54.77
2023-03-26T19:29:44.517Z,52.73
2023-03-26T19:34:48.222Z,51.50
2023-03-26T19:39:54.043Z,50.69
2023-03-26T19:44:57.271Z,52.94
2023-03-26T19:50:03.791Z,55.14
2023-03-26T19:55:10.171Z,52.51
2023-03-26T20:00:16.074Z,52.40
2023-03-26T20:05:23.674Z,51.95
2023-03-26T20:10:26.344Z,53.76
2023-03-26T20:15:31.816Z,50.96
2023-03-26T20:20:34.326Z,49.63
2023-03-26T20:25:51.734Z,51.05
2023-03-26T20:30:54.701Z,50.75
2023-03-26T20:35:58.529Z,50.91
2023-03-26T20:41:00.560Z,51.12
2023-03-26T20:46:02.549Z,49.71
2023-03-26T20:51:04.887Z,49.58
2023-03-26T20:56:15.438Z,51.20
2023-03-26T21:01:17.558Z,52.75
2023-03-26T21:06:19.303Z,50.89
2023-03-26T21:11:29.590Z,51.80
2023-03-26T21:16:31.524Z,51.42
2023-03-26T21:21:47.631Z,52.35
2023-03-26T21:27:27.252Z,51.52
2023-03-26T21:32:31.616Z,52.45
2023-03-26T21:37:33.696Z,51.73
2023-03-26T21:42:35.633Z,52.99
2023-03-26T21:47:37.781Z,51.58
2023-03-26T21:52:47.128Z,54.22
2023-03-26T21:58:00.560Z,55.09
2023-03-26T22:03:10.084Z,53.51
2023-03-26T22:08:34.024Z,54.34
2023-03-26T22:13:35.836Z,53.63
2023-03-26T22:18:37.466Z,53.16
2023-03-26T22:23:39.096Z,52.28
2023-03-26T22:28:40.880Z,50.87
2023-03-26T22:33:42.945Z,51.47
2023-03-26T22:38:44.961Z,50.30
2023-03-26T22:43:46.789Z,51.06
2023-03-26T22:48:48.674Z,51.14
2023-03-26T22:53:50.246Z,52.52
2023-03-26T22:58:51.895Z,52.77
2023-03-26T23:03:54.577Z,54.40
2023-03-26T23:08:57.071Z,52.15
2023-03-26T23:13:58.883Z,52.37
2023-03-26T23:19:00.713Z,54.13
2023-03-26T23:24:03.767Z,56.06
2023-03-26T23:29:05.356Z,55.62
2023-03-26T23:34:06.913Z,54.88
2023-03-26T23:39:08.907Z,54.34
2023-03-26T23:44:14.391Z,55.67
2023-03-26T23:49:16.204Z,54.95
2023-03-26T23:54:18.698Z,53.83
2023-03-26T23:59:20.428Z,53.77
